Air Resources Laboratory banner image
Air Resources Laboratory web site National Oceanic and Atmospheric Administration (NOAA)

ny metar


KALB 120951Z 13004KT 4SM -SN BR OVC024 M01/M03 A2975 RMK AO2 SLP076 P0002
 T10111028=
KART 120956Z AUTO 15006KT 3/4SM -SN BR VV014 M01/M02 A2958 RMK AO2 SLP023 P0000
 T10111017=
KBGM 120953Z AUTO 16010G20KT 2 1/2SM -SN OVC018 M01/M04 A2953 RMK AO2 SNB09
 SLP019 P0000 T10111039=
KBNL 120955Z AUTO 00000KT 10SM 06/03 A2988 RMK AO2=
KBUF 120954Z 16004KT 1SM R23/6000VP6000FT -SN BR BKN006 OVC013 M01/M01 A2951
 RMK AO2 SLP001 P0003 T10111011 $=
KDKK 120953Z AUTO 20006KT 2 1/2SM -SN BR OVC032 M01/M02 A2952 RMK AO2 SLP004
 P0000 T10111017=
KDSV 120954Z AUTO 15004KT 3SM -SN BR FEW027 OVC038 M01/M03 A2951 RMK AO2 SLP008
 P0000 T10111028=
KELM 120953Z AUTO 14006KT 10SM OVC023 02/M02 A2953 RMK AO2 SLP007 T00171017=
KELZ 120956Z AUTO 16006KT 1 1/2SM -SN BKN022 OVC038 M01/M03 A2946 RMK AO2
 SLP996 P0001 T10061033 $=
KFOK 120953Z AUTO 16004KT 10SM FEW037 BKN090 04/00 A2984 RMK AO2 SLP104
 T00440000=
KFRG 120953Z AUTO 17013KT 10SM BKN037 OVC046 06/01 A2978 RMK AO2 SLP085
 T00610011=
KFZY 120954Z AUTO 12004KT 3/4SM -SN BR VV007 M01/M02 A2956 RMK AO2 SLP016 P0003
 T10111022=
KGFL 120953Z AUTO 00000KT 1/4SM SN FZFG VV006 M06/M06 A2975 RMK AO2 SLP086
 P0007 T10561061=
KGTB 120956Z 14011KT 2SM -SN BR OVC009 M03/M04 A2956 RMK AO2A SLP020 P0000
 T10291045=
KHPN 120956Z 12005KT 10SM SCT028 BKN034 02/M01 A2975 RMK AO2 DZB46E56 SLP079
 P0000 T00221011=
KHTO 120955Z AUTO 00000KT 10SM SCT035 OVC040 00/M02 A2983 RMK AO2 T00001017=
KHWV 120956Z AUTO 16007KT 10SM SCT038 BKN080 OVC100 04/01 A2982 RMK AO2 SLP097
 T00440006=
KIAG 120953Z AUTO 00000KT 1SM R28R/P6000FT -SN SCT008 OVC014 M01/M03 A2952 RMK
 AO2 SLP010 P0002 T10061033=
KISP 120956Z AUTO 16008KT 10SM SCT036 OVC047 06/01 A2979 RMK AO2 SLP088
 T00610011=
KITH 120956Z AUTO 14013KT 6SM -SN BR SCT012 SCT025 OVC050 M01/M02 A2952 RMK AO2
 SLP009 P0000 T10111022=
KJFK 120951Z 16017G23KT 10SM FEW032 BKN050 OVC080 08/03 A2978 RMK AO2 SLP083
 T00780028=
KJHW 120956Z AUTO 25004KT 1 3/4SM -SN BR BKN014 OVC021 M03/M03 A2947 RMK AO2
 SLP005 P0003 T10281033 FZRANO=
KLGA 120951Z 18009G14KT 10SM SCT033 BKN042 OVC075 07/02 A2976 RMK AO2 SLP076
 T00720022 $=
KMGJ 120954Z AUTO 03005KT 10SM OVC049 M01/M03 A2971 RMK AO2 SLP065 T10061033=
KMSS 120953Z AUTO 07012G21KT 1SM -SN BR VV011 M08/M10 A2971 RMK AO2 SLP069
 P0001 T10831100=
KMTP 120954Z AUTO 18005KT 07/01 A2985 RMK AO1 SLP108 T00720011=
KNYC 120951Z 17005KT 10SM BKN030 BKN041 OVC070 07/02 A2977 RMK AO2 SLP074
 T00720022 $=
KOGS 120955Z AUTO 06010KT 1SM SN OVC005 M07/M09 A2964 RMK AO2 T10751086=
KOLE 120955Z AUTO 20004KT 3SM -SN OVC002 M03/M03 A2945 RMK AO2=
KPBG 120953Z AUTO 00000KT 3SM -SN BR OVC034 M08/M09 A2976 RMK AO2 SLP082 P0000
 T10781094 TSNO=
KPEO 120953Z AUTO 00000KT 4SM BR OVC044 M02/M04 A2951 RMK AO2 SLP005 T10171039=
KPOU 120953Z AUTO 15004KT 10SM OVC031 02/M04 A2974 RMK AO2 SLP070 T00221039=
KRME 120953Z AUTO 13010KT 1SM -SN BR VV013 M03/M04 A2963 RMK AO2 SLP040 P0002
 T10281039 RVRNO=
KROC 120954Z 13003KT 1 1/2SM -SN BR OVC022 M01/M01 A2952 RMK AO2 SLP007 VIS 1V2
 P0002 T10111011=
KSLK 120946Z AUTO 04007KT 1 3/4SM -SN BR M08/M09 A2959 RMK AO2 SNB39 SLP049
 P0001 T10831094 $=
KSWF 120945Z VRB06KT 10SM BKN050 02/M02 A2974=
KSYR 120954Z 10008KT 1SM R28/6000VP6000FT -SN BR OVC014 M02/M02 A2957 RMK AO2
 SLP015 P0003 T10171017 $=